Bookmark and Share
Track history (hours):
 

MSC Rania

Last reported at 2014-Apr-19 21:33 UTC. Time now 2014-Apr-20 05:57 UTC.
Position N 01°14' E 103°27'.

Length 332 m; draft 15.4 m.

Type: Ship (hazmat cat A). MMSI: 371752000.

NotesDate/timePositionNaut miles runAvg speedWind from/ knotsBaromVisibWave heightAir tempDewpointWater temp
2014-Apr-19 21:33N 01°14' E 103°27'1413.6
2014-Apr-19 20:33N 01°13' E 103°40'7 6.8
2014-Apr-19 19:33N 01°16' E 103°46'0 0.1
2014-Apr-19 18:32N 01°16' E 103°46'0 0.0
2014-Apr-19 17:29N 01°16' E 103°46'0 0.0
2014-Apr-19 16:23N 01°16' E 103°46'0 0.0
2014-Apr-19 15:32N 01°16' E 103°46'0 0.0
2014-Apr-19 14:32N 01°16' E 103°46'0 0.0
2014-Apr-19 13:32N 01°16' E 103°46'0 0.0
2014-Apr-19 12:32N 01°16' E 103°46'0 0.0
2014-Apr-19 11:32N 01°16' E 103°46'0 0.0
2014-Apr-19 10:32N 01°16' E 103°46'0 0.0
2014-Apr-19 09:32N 01°16' E 103°46'0 0.0
2014-Apr-19 08:32N 01°16' E 103°46'0 0.0
2014-Apr-19 07:29N 01°16' E 103°46'0 0.0
2014-Apr-19 06:32N 01°16' E 103°46'0 0.0
2014-Apr-19 05:32N 01°16' E 103°46'0 0.0
2014-Apr-19 04:32N 01°16' E 103°46'0 0.0
2014-Apr-19 03:32N 01°16' E 103°46'0 0.0
2014-Apr-19 02:29N 01°16' E 103°46'0 0.0
2014-Apr-19 01:32N 01°16' E 103°46'0 0.0
2014-Apr-19 00:32N 01°16' E 103°46'0 0.0
2014-Apr-18 23:28N 01°16' E 103°46'0 0.0
2014-Apr-18 22:31N 01°16' E 103°46'0 0.0
2014-Apr-18 21:31N 01°16' E 103°46'0 0.0
2014-Apr-18 20:31N 01°16' E 103°46'0 0.0
2014-Apr-18 19:31N 01°16' E 103°46'0 0.0
2014-Apr-18 18:31N 01°16' E 103°46'0 0.0
2014-Apr-18 17:28N 01°16' E 103°46'0 0.0
2014-Apr-18 16:31N 01°16' E 103°46'0 0.0
2014-Apr-18 15:30N 01°16' E 103°46'0 0.0
2014-Apr-18 14:09N 01°16' E 103°46'0 0.0
2014-Apr-18 13:33N 01°16' E 103°46'0 0.0
2014-Apr-18 12:33N 01°16' E 103°46'0 0.0
2014-Apr-18 11:24N 01°16' E 103°46'0 0.0
2014-Apr-18 10:33N 01°16' E 103°46'1 0.6
2014-Apr-18 09:33N 01°16' E 103°46'3 2.5
2014-Apr-18 08:33N 01°13' E 103°48'6 5.6
2014-Apr-18 07:33N 01°13' E 103°53'  
2014-Apr-13 18:18N 22°16' E 114°07'8 9.7
2014-Apr-13 17:27N 22°21' E 113°59'910.3
2014-Apr-13 16:33N 22°27' E 113°53'1 0.4
2014-Apr-13 15:15N 22°28' E 113°53'0 0.0
2014-Apr-13 14:15N 22°28' E 113°53'0 0.0
2014-Apr-13 12:27N 22°28' E 113°53'0 0.0
2014-Apr-13 11:21N 22°28' E 113°53'0 0.0
2014-Apr-13 10:15N 22°28' E 113°53'0 0.0
2014-Apr-13 09:33N 22°28' E 113°53'0 0.0
2014-Apr-13 07:20N 22°28' E 113°53'0 0.0
2014-Apr-13 06:26N 22°28' E 113°53'0 0.0
2014-Apr-13 05:33N 22°28' E 113°53'0 0.0
2014-Apr-13 04:32N 22°28' E 113°53'0 0.0
2014-Apr-13 03:20N 22°28' E 113°53'0 0.0
2014-Apr-13 02:32N 22°28' E 113°53'4 4.5
2014-Apr-13 01:33N 22°24' E 113°54'11 9.8
2014-Apr-13 00:26N 22°20' E 114°05'15 7.7
2014-Apr-12 22:33N 22°09' E 114°15'21313.2
2014-Apr-12 06:23N 23°20' E 117°53'1517.5
2014-Apr-12 05:33N 23°30' E 118°05'1716.9
2014-Apr-12 04:33N 23°39' E 118°20'1717.2
2014-Apr-12 03:34N 23°49' E 118°36'1717.3
2014-Apr-12 02:34N 23°58' E 118°52'1716.9
2014-Apr-12 01:34N 24°07' E 119°07'1817.8
2014-Apr-12 00:34N 24°17' E 119°24'1817.5
2014-Apr-11 23:33N 24°26' E 119°40'1818.2
2014-Apr-11 22:33N 24°38' E 119°55'1818.1
2014-Apr-11 21:33N 24°51' E 120°10'1818.0
2014-Apr-11 20:34N 25°03' E 120°24'1917.9
2014-Apr-11 19:31N 25°17' E 120°37'5217.1
2014-Apr-11 16:30N 25°59' E 121°11'1616.9
2014-Apr-11 15:32N 26°11' E 121°23'15018.1
2014-Apr-11 07:15N 28°25' E 122°40'1519.3
2014-Apr-11 06:30N 28°38' E 122°47'1819.5
2014-Apr-11 05:33N 28°55' E 122°55'2019.7
2014-Apr-11 04:33N 29°14' E 122°54'1919.5
2014-Apr-11 03:33N 29°33' E 122°49'1717.2
2014-Apr-11 02:33N 29°40' E 122°31'1616.3
2014-Apr-11 01:33N 29°48' E 122°14'1111.4
2014-Apr-11 00:33N 29°54' E 122°03'1 1.5
2014-Apr-10 23:33N 29°54' E 122°02'0 0.0
2014-Apr-10 22:33N 29°54' E 122°02'0 0.0
2014-Apr-10 21:33N 29°54' E 122°02'0 0.0
2014-Apr-10 20:33N 29°54' E 122°02'0 0.1
2014-Apr-10 19:33N 29°54' E 122°02'0 0.0
2014-Apr-10 18:33N 29°54' E 122°02'0 0.0
2014-Apr-10 17:33N 29°54' E 122°02'0 0.0
2014-Apr-10 16:33N 29°54' E 122°02'0 0.1
2014-Apr-10 15:33N 29°54' E 122°02'0 0.0
2014-Apr-10 14:33N 29°54' E 122°02'0 0.0
2014-Apr-10 13:33N 29°54' E 122°02'0 0.0
2014-Apr-10 12:33N 29°54' E 122°02'0 0.0
2014-Apr-10 11:33N 29°54' E 122°02'0 0.0
2014-Apr-10 10:33N 29°54' E 122°02'0 0.0
2014-Apr-10 09:33N 29°54' E 122°02'6 6.4
2014-Apr-10 08:33N 29°56' E 122°09'1312.6
2014-Apr-10 07:33N 29°46' E 122°18'7 7.2
2014-Apr-10 06:33N 29°44' E 122°26'4 4.3
2014-Apr-10 05:31N 29°45' E 122°31'0 0.1
2014-Apr-10 04:31N 29°45' E 122°31'0 0.0
2014-Apr-10 03:31N 29°45' E 122°31'0 0.1
2014-Apr-10 02:25N 29°45' E 122°31'0 0.0
2014-Apr-10 01:31N 29°45' E 122°31'0 0.1
2014-Apr-10 00:31N 29°45' E 122°31'0 0.1
2014-Apr-09 23:25N 29°45' E 122°31'0 0.1
2014-Apr-09 22:31N 29°45' E 122°31'  

Dump ship's entire track history

sailing weather and tide predictions

MSC Rania — 3EEB3 — position and weather